Data for 08/29/2015

Time Sea-Level Adjusted Pressure Absolute Pressure Temperature Relative Humidity Dew Point   
(mb) (inHg) (mb) (inHg) (C) (F) (%) (C) (F)
00:05 1020 30.12 850 25.1 19.1 66.3 35 3.6 38.5
00:10 1020 30.12 850 25.1 18.9 66.1 36 3.8 38.8
00:15 1020 30.12 850 25.1 18.7 65.7 37 3.7 38.7
00:20 1020 30.12 850 25.1 18.7 65.6 38 4.3 39.8
00:25 1020 30.12 850 25.1 18.4 65 38 3.9 39
00:30 1020 30.12 850 25.1 18.4 65.1 37 3.7 38.7
00:35 1020 30.12 850 25.1 18.5 65.2 39 4.3 39.8
00:40 1020 30.12 849 25.07 18.4 65 39 4.2 39.5
00:45 1020 30.12 849 25.07 18.5 65.2 38 3.8 38.9
00:50 1020 30.12 850 25.1 18.5 65.3 37 3.8 38.8
00:55 1020 30.12 849 25.07 18.6 65.5 39 4.7 40.4
01:00 1020 30.12 849 25.07 18.7 65.7 37 4 39.2
01:05 1020 30.12 849 25.07 18.6 65.6 37 3.8 38.8
01:10 1020 30.12 850 25.1 18.6 65.5 38 4.1 39.4
01:15 1020 30.12 849 25.07 18.4 65.1 41 4.9 40.9
01:20 1020 30.12 849 25.07 18.1 64.7 40 4.5 40.2
01:25 1020 30.12 849 25.07 17.7 63.8 41 4.4 39.9
01:30 1020 30.12 849 25.07 17.3 63.2 44 5 41
01:35 1020 30.12 849 25.07 16.9 62.4 45 5 41
01:40 1020 30.12 849 25.07 17 62.5 42 4 39.1
01:45 1020 30.12 849 25.07 17.4 63.3 42 4.4 40
01:50 1020 30.12 849 25.07 17.2 63 42 4.3 39.7
01:55 1020 30.12 849 25.07 17.2 63 42 4.4 39.9
02:00 1020 30.12 849 25.07 17 62.6 43 4.4 39.9
02:05 1020 30.12 849 25.07 16.8 62.2 44 4.5 40.1
02:10 1020 30.12 849 25.07 16.7 62 43 4.1 39.4
02:15 1020 30.12 849 25.07 16.9 62.3 43 4.2 39.5
02:20 1020 30.12 849 25.07 17 62.6 41 3.7 38.7
02:25 1020 30.12 849 25.07 17.2 63 40 3.6 38.5
02:30 1020 30.12 849 25.07 17.4 63.2 39 3.6 38.4
02:35 1020 30.12 849 25.07 17.4 63.3 40 3.8 38.8
02:40 1020 30.12 849 25.07 17.3 63.1 40 3.7 38.6
02:45 1020 30.12 849 25.07 17.3 63.1 40 3.6 38.5
02:50 1020 30.12 849 25.07 17.2 63 40 3.6 38.4
02:55 1020 30.12 849 25.07 17.2 62.9 41 3.8 38.9
03:00 1020 30.12 849 25.07 17.1 62.7 40 3.5 38.2
03:05 1020 30.12 849 25.07 17.3 63.1 40 3.5 38.3
03:10 1020 30.12 849 25.07 17.3 63.2 39 3.5 38.2
03:15 1020 30.12 849 25.07 17.3 63.2 39 3.4 38.2
03:20 1020 30.12 849 25.07 17.4 63.3 39 3.5 38.4
03:25 1020 30.12 849 25.07 17.5 63.4 39 3.3 38
03:30 1020 30.12 849 25.07 17.4 63.4 40 3.8 38.8
03:35 1020 30.12 849 25.07 17.1 62.7 40 3.6 38.5
03:40 1020 30.12 849 25.07 17 62.6 41 3.9 39
03:45 1019 30.09 849 25.07 16.9 62.4 41 3.8 38.8
03:50 1019 30.09 849 25.07 16.9 62.3 42 3.9 39.1
03:55 1019 30.09 849 25.07 16.8 62.2 42 4 39.1
04:00 1019 30.09 849 25.07 16.7 62 42 4 39.1
04:05 1019 30.09 849 25.07 16.6 61.9 42 3.9 39
04:10 1019 30.09 849 25.07 16.7 62 41 3.6 38.4
04:15 1019 30.09 849 25.07 16.9 62.3 41 3.5 38.4
04:20 1019 30.09 849 25.07 16.8 62.3 41 3.5 38.3
04:25 1019 30.09 849 25.07 17 62.6 41 3.6 38.5
04:30 1019 30.09 848 25.04 17.1 62.7 39 3.2 37.8
04:35 1019 30.09 848 25.04 17.2 63 39 3.3 38
04:40 1019 30.09 848 25.04 17.5 63.4 42 4.4 39.9
04:45 1019 30.09 848 25.04 17.7 63.9 39 3.6 38.5
04:50 1019 30.09 848 25.04 17.7 63.8 38 3.3 37.9
04:55 1019 30.09 848 25.04 17.6 63.7 38 3.3 37.9
05:00 1019 30.09 848 25.04 17.4 63.4 38 3.2 37.7
05:05 1019 30.09 849 25.07 17.4 63.4 37 2.9 37.2
05:10 1019 30.09 848 25.04 17.4 63.4 38 3 37.4
05:15 1019 30.09 848 25.04 17.4 63.3 39 3.3 37.9
05:20 1019 30.09 848 25.04 17.2 63 38 2.8 37
05:25 1019 30.09 848 25.04 17.3 63.1 36 2.3 36.2
05:30 1019 30.09 849 25.07 17.8 64 36 2.5 36.5
05:35 1019 30.09 849 25.07 17.8 64.1 37 3.2 37.8
05:40 1019 30.09 849 25.07 17.5 63.6 39 3.6 38.5
05:45 1019 30.09 849 25.07 17.2 62.9 38 2.7 36.9
05:50 1019 30.09 849 25.07 17.2 62.9 38 2.7 36.9
05:55 1019 30.09 849 25.07 17.2 62.9 39 3.1 37.5
06:00 1019 30.09 849 25.07 17 62.5 40 3.4 38.1
06:05 1019 30.09 849 25.07 16.9 62.3 40 3.3 38
06:10 1019 30.09 849 25.07 17 62.5 42 4 39.2
06:15 1020 30.12 849 25.07 17 62.5 36 2.1 35.7
06:20 1020 30.12 849 25.07 17.6 63.7 37 2.7 36.9
06:25 1020 30.12 849 25.07 17.3 63.1 38 2.8 37
06:30 1020 30.12 849 25.07 17.2 62.9 42 4.2 39.6
06:35 1020 30.12 849 25.07 17.3 63.1 42 4.2 39.6
06:40 1020 30.12 849 25.07 16.7 62 43 4.2 39.6
06:45 1020 30.12 849 25.07 16.6 61.9 41 3.5 38.3
06:50 1020 30.12 849 25.07 16.7 62 45 4.9 40.8
06:55 1020 30.12 849 25.07 16.3 61.3 47 5 41
07:00 1020 30.12 849 25.07 16.3 61.3 43 3.7 38.7
07:05 1020 30.12 849 25.07 16.7 62 43 4.1 39.4
07:10 1020 30.12 849 25.07 16.7 62.1 46 5.2 41.4
07:15 1020 30.12 849 25.07 16.8 62.2 44 4.6 40.3
07:20 1020 30.12 849 25.07 17 62.6 43 4.5 40.1
07:25 1020 30.12 849 25.07 17 62.7 45 5 40.9
07:30 1020 30.12 849 25.07 17.1 62.7 46 5.5 41.8
07:35 1020 30.12 849 25.07 17.1 62.7 46 5.6 42.1
07:40 1020 30.12 849 25.07 17 62.6 48 6.1 43
07:45 1020 30.12 849 25.07 17 62.5 49 6.3 43.3
07:50 1020 30.12 849 25.07 16.9 62.3 49 6.2 43.2
07:55 1020 30.12 849 25.07 17 62.5 50 6.5 43.7
08:00 1020 30.12 849 25.07 17.2 63 45 5.4 41.6
08:05 1019 30.09 849 25.07 17.8 64.1 48 6.7 44.1
08:10 1019 30.09 848 25.04 18 64.3 40 4.4 40
08:15 1019 30.09 848 25.04 18.5 65.4 43 5.9 42.7
08:20 1019 30.09 848 25.04 19 66.2 36 3.6 38.4
08:25 1019 30.09 848 25.04 19.5 67.2 35 4 39.2
08:30 1019 30.09 848 25.04 19.6 67.3 38 4.9 40.8
08:35 1019 30.09 848 25.04 19.8 67.6 35 4 39.2
08:40 1019 30.09 848 25.04 20.4 68.7 32 3.3 38
08:45 1019 30.09 848 25.04 20.9 69.6 31 3.5 38.3
08:50 1019 30.09 848 25.04 21.2 70.1 31 3.7 38.6
08:55 1018 30.06 848 25.04 21.4 70.5 31 3.9 39
09:00 1018 30.06 848 25.04 21.7 71 32 4.4 39.9
09:05 1018 30.06 848 25.04 22 71.6 31 4.5 40.1
09:10 1018 30.06 848 25.04 22.2 71.9 30 4.2 39.5
09:15 1018 30.06 848 25.04 22.8 73 28 3.7 38.6
09:20 1018 30.06 847 25.01 23.6 74.4 27 3.5 38.3
09:25 1018 30.06 847 25.01 24 75.2 26 3.4 38
09:30 1018 30.06 847 25.01 24.3 75.8 25 3.2 37.8
09:35 1018 30.06 847 25.01 24.8 76.6 25 3.6 38.5
09:40 1018 30.06 847 25.01 25.1 77.2 24 3.5 38.2
09:45 1018 30.06 847 25.01 25.5 77.8 23 3.3 37.9
09:50 1018 30.06 847 25.01 25.7 78.2 24 3.9 39
09:55 1018 30.06 847 25.01 26 78.7 23 3.4 38.1
10:00 1018 30.06 847 25.01 26.5 79.6 22 3.5 38.2
10:05 1018 30.06 847 25.01 26.8 80.2 22 3.8 38.8
10:10 1018 30.06 847 25.01 27.2 81 22 4.1 39.5
10:15 1018 30.06 847 25.01 27.4 81.2 21 3.3 37.9
10:20 1017 30.03 847 25.01 27.7 81.9 21 3.5 38.3
10:25 1017 30.03 847 25.01 28.1 82.6 21 3.8 38.8
10:30 1017 30.03 847 25.01 28.3 82.9 20 3.5 38.2
10:35 1017 30.03 846 24.98 28.4 83.1 22 4.6 40.4
10:40 1017 30.03 846 24.98 28.3 83 19 3.1 37.6
10:45 1017 30.03 846 24.98 28.5 83.3 20 3.6 38.4
10:50 1017 30.03 846 24.98 28.7 83.6 19 3 37.4
10:55 1017 30.03 846 24.98 29.1 84.3 18 2.5 36.6
11:00 1017 30.03 846 24.98 29.5 85.2 17 2.3 36.1
11:05 1017 30.03 846 24.98 29.3 84.8 17 2.1 35.7
11:10 1017 30.03 846 24.98 29.7 85.4 18 3.3 37.9
11:15 1017 30.03 846 24.98 29.8 85.6 18 3.3 37.9
11:20 1017 30.03 846 24.98 29.5 85 19 3.9 39
11:25 1017 30.03 846 24.98 29.5 85 18 3.3 37.9
11:30 1017 30.03 846 24.98 29.7 85.4 17 2.1 35.8
11:35 1017 30.03 846 24.98 29.7 85.5 16 1.4 34.5
11:40 1017 30.03 846 24.98 29.7 85.5 17 2.4 36.3
11:45 1016 30 846 24.98 29.7 85.5 17 2.5 36.4
11:50 1016 30 846 24.98 29.7 85.4 16 1.4 34.5
11:55 1016 30 846 24.98 29.6 85.4 17 2.7 36.9
12:00 1016 30 845 24.95 29.5 85 17 2.4 36.4
12:05 1016 30 845 24.95 29.3 84.7 17 2.1 35.7
12:10 1016 30 845 24.95 29.3 84.7 17 2.4 36.4
12:15 1016 30 845 24.95 29.3 84.7 18 3.1 37.5
12:20 1016 30 845 24.95 29.4 84.9 18 2.7 36.8
12:25 1016 30 845 24.95 29.4 84.8 18 2.8 37.1
12:30 1016 30 845 24.95 29.4 84.9 18 2.8 37
12:35 1016 30 845 24.95 29.5 85 18 2.9 37.3
12:40 1016 30 845 24.95 29.5 85 17 2.5 36.5
12:45 1016 30 845 24.95 29.5 85 17 1.9 35.4
12:50 1016 30 845 24.95 29.5 85 17 2 35.7
12:55 1016 30 845 24.95 29.4 85 17 1.9 35.5
13:00 1016 30 845 24.95 29.3 84.8 17 2.2 36
13:05 1016 30 845 24.95 29.2 84.5 18 2.5 36.5
13:10 1016 30 845 24.95 29.2 84.6 18 2.8 37.1
13:15 1016 30 845 24.95 29.1 84.3 18 3 37.4
13:20 1016 30 845 24.95 29 84.1 18 2.3 36.2
13:25 1016 30 845 24.95 29 84.2 19 3.1 37.6
13:30 1016 30 845 24.95 28.7 83.7 19 3.5 38.2
13:35 1016 30 845 24.95 28.7 83.7 19 2.9 37.3
13:40 1016 30 845 24.95 28.8 83.9 18 2.5 36.5
13:45 1016 30 845 24.95 28.9 84 19 3 37.5
13:50 1016 30 845 24.95 28.7 83.7 19 2.9 37.3
13:55 1016 30 845 24.95 28.7 83.6 18 2.6 36.6
14:00 1016 30 845 24.95 28.7 83.7 19 3.2 37.8
14:05 1016 30 845 24.95 28.7 83.6 19 3.1 37.6
14:10 1016 30 845 24.95 28.6 83.5 19 3.4 38.2
14:15 1016 30 845 24.95 28.6 83.5 18 2.7 36.8
14:20 1016 30 845 24.95 28.7 83.6 19 3.3 37.9
14:25 1016 30 845 24.95 28.7 83.6 20 3.7 38.6
14:30 1016 30 845 24.95 28.6 83.5 20 3.7 38.6
14:35 1016 30 845 24.95 28.7 83.6 19 2.9 37.3
14:40 1015 29.97 845 24.95 28.8 83.8 21 4.6 40.2
14:45 1015 29.97 844 24.92 28.6 83.4 19 3.3 37.9
14:50 1015 29.97 844 24.92 28.7 83.6 20 3.7 38.6
14:55 1015 29.97 844 24.92 28.7 83.7 20 3.9 39
15:00 1015 29.97 844 24.92 28.5 83.3 21 4.4 40
15:05 1015 29.97 844 24.92 28.5 83.3 21 4.4 39.9
15:10 1015 29.97 844 24.92 28.7 83.6 21 4.7 40.4
15:15 1015 29.97 844 24.92 28.8 83.9 20 4.1 39.4
15:20 1015 29.97 844 24.92 29 84.1 20 3.7 38.7
15:25 1015 29.97 844 24.92 29.1 84.4 21 4.7 40.4
15:30 1015 29.97 844 24.92 29.1 84.3 20 4.2 39.6
15:35 1014 29.94 844 24.92 29.5 85.1 19 4.1 39.4
15:40 1014 29.94 843 24.89 29.7 85.5 19 4.3 39.8
15:45 1014 29.94 843 24.89 29.7 85.5 18 2.9 37.1
15:50 1014 29.94 843 24.89 29.7 85.5 18 3.5 38.3
15:55 1014 29.94 843 24.89 29.6 85.2 19 3.9 39
16:00 1014 29.94 843 24.89 29.5 85.1 18 3.4 38.2
16:05 1014 29.94 843 24.89 29.3 84.8 20 4.4 39.9
16:10 1014 29.94 843 24.89 29.3 84.7 19 3.5 38.3
16:15 1014 29.94 843 24.89 29.3 84.7 18 3.2 37.7
16:20 1014 29.94 843 24.89 29.3 84.8 19 3.7 38.7
16:25 1014 29.94 843 24.89 29.3 84.7 18 3.1 37.5
16:30 1014 29.94 843 24.89 29.4 84.9 18 3.2 37.8
16:35 1014 29.94 843 24.89 29.3 84.8 19 3.4 38.2
16:40 1014 29.94 843 24.89 29.2 84.6 19 3.9 39
16:45 1014 29.94 843 24.89 29.1 84.5 20 4 39.3
16:50 1014 29.94 843 24.89 29.1 84.4 20 4.1 39.4
16:55 1014 29.94 843 24.89 29 84.3 20 4.5 40
17:00 1014 29.94 843 24.89 28.9 83.9 21 4.4 39.8
17:05 1014 29.94 843 24.89 28.8 83.8 19 3.5 38.3
17:10 1014 29.94 843 24.89 28.9 84.1 19 3.4 38.1
17:15 1014 29.94 843 24.89 28.9 84.1 18 2.8 37.1
17:20 1014 29.94 843 24.89 28.8 83.8 19 2.9 37.3
17:25 1014 29.94 843 24.89 28.7 83.6 19 2.8 37
17:30 1014 29.94 843 24.89 28.5 83.4 18 2.6 36.6
17:35 1014 29.94 843 24.89 28.5 83.3 18 2.1 35.8
17:40 1014 29.94 843 24.89 28.5 83.3 18 2.2 36
17:45 1014 29.94 843 24.89 28.4 83.2 17 1.7 35
17:50 1014 29.94 843 24.89 28.5 83.2 17 1.7 35.1
17:55 1014 29.94 843 24.89 28.3 83 18 1.9 35.4
18:00 1014 29.94 843 24.89 28.1 82.7 18 2.1 35.8
18:05 1014 29.94 843 24.89 28.1 82.6 18 2.1 35.8
18:10 1014 29.94 843 24.89 28.2 82.7 19 2.4 36.3
18:15 1014 29.94 843 24.89 28.1 82.5 19 2.5 36.5
18:20 1013 29.91 843 24.89 28.1 82.5 19 2.4 36.3
18:25 1013 29.91 843 24.89 28.1 82.6 19 2.7 36.9
18:30 1014 29.94 843 24.89 27.9 82.2 19 2.8 37
18:35 1014 29.94 843 24.89 27.6 81.7 20 2.8 37.1
18:40 1013 29.91 843 24.89 27.6 81.7 20 2.6 36.7
18:45 1013 29.91 843 24.89 27.7 81.8 19 2.3 36.1
18:50 1014 29.94 843 24.89 27.7 81.9 19 2.4 36.3
18:55 1014 29.94 843 24.89 27.6 81.6 19 2.3 36.2
19:00 1014 29.94 843 24.89 27.6 81.6 19 2.3 36.1
19:05 1014 29.94 843 24.89 27.4 81.3 19 2.2 36
19:10 1014 29.94 843 24.89 27.3 81.2 19 2.2 35.9
19:15 1014 29.94 843 24.89 27.5 81.4 19 2.3 36.2
19:20 1014 29.94 843 24.89 27.4 81.3 20 2.4 36.3
19:25 1014 29.94 843 24.89 27.3 81.2 20 2.4 36.4
19:30 1014 29.94 843 24.89 27.3 81.1 20 2.8 37
19:35 1014 29.94 843 24.89 27.1 80.8 20 2.5 36.6
19:40 1014 29.94 843 24.89 27.2 80.9 20 2.5 36.5
19:45 1014 29.94 843 24.89 27.2 81 19 2 35.6
19:50 1014 29.94 843 24.89 27.4 81.4 21 3.4 38.1
19:55 1014 29.94 843 24.89 27.1 80.8 20 2.5 36.5
20:00 1014 29.94 843 24.89 26.9 80.5 21 2.8 37.1
20:05 1014 29.94 843 24.89 26.6 79.9 22 3.5 38.4
20:10 1014 29.94 843 24.89 26.5 79.7 21 2.7 36.9
20:15 1014 29.94 843 24.89 26.7 80 21 3 37.4
20:20 1014 29.94 843 24.89 26.8 80.2 20 2.5 36.6
20:25 1014 29.94 843 24.89 26.6 79.9 23 3.9 39
20:30 1014 29.94 843 24.89 26 78.8 23 3.5 38.2
20:35 1014 29.94 843 24.89 26.2 79.1 22 3.3 37.9
20:40 1013 29.91 843 24.89 26.5 79.8 22 3.4 38.2
20:45 1013 29.91 843 24.89 26.7 80.1 22 3.7 38.6
20:50 1013 29.91 843 24.89 26.9 80.3 22 3.8 38.8
20:55 1013 29.91 843 24.89 26.8 80.3 22 3.7 38.6
21:00 1013 29.91 843 24.89 26.9 80.5 22 3.7 38.7
21:05 1013 29.91 843 24.89 26.9 80.5 23 4.1 39.3
21:10 1013 29.91 843 24.89 26.7 80.1 22 3.8 38.9
21:15 1013 29.91 843 24.89 26.6 80 22 3.4 38.1
21:20 1013 29.91 843 24.89 26.7 80 22 3.2 37.7
21:25 1014 29.94 843 24.89 26.5 79.6 21 2.8 37
21:30 1014 29.94 843 24.89 26.5 79.6 21 2.6 36.6
21:35 1014 29.94 843 24.89 26.6 80 20 2.1 35.8
21:40 1014 29.94 843 24.89 26.6 80 20 2.2 36
21:45 1014 29.94 843 24.89 26.6 79.8 20 2.2 35.9
21:50 1014 29.94 843 24.89 26.5 79.6 20 2.1 35.8
21:55 1014 29.94 843 24.89 26.6 79.8 19 1.4 34.5
22:00 1014 29.94 843 24.89 26.6 79.9 19 1.4 34.5
22:05 1014 29.94 843 24.89 26.4 79.5 22 3 37.5
22:10 1014 29.94 843 24.89 25.5 78 24 3.6 38.5
22:15 1014 29.94 843 24.89 25.2 77.3 24 3.3 38
22:20 1014 29.94 843 24.89 25.5 78 20 1.2 34.2
22:25 1014 29.94 843 24.89 26.4 79.4 20 2.1 35.7
22:30 1014 29.94 843 24.89 26.3 79.3 21 2.3 36.1
22:35 1014 29.94 843 24.89 26.2 79.1 21 2.3 36.1
22:40 1014 29.94 843 24.89 26.2 79.2 20 2 35.6
22:45 1014 29.94 843 24.89 26.3 79.3 21 2.5 36.4
22:50 1014 29.94 843 24.89 26.1 79 21 2.5 36.6
22:55 1014 29.94 843 24.89 26 78.8 23 3.3 37.9
23:00 1014 29.94 843 24.89 25.9 78.5 22 2.6 36.7
23:05 1014 29.94 843 24.89 25.8 78.5 22 2.7 36.9
23:10 1014 29.94 843 24.89 25.7 78.2 23 3.1 37.5
23:15 1014 29.94 843 24.89 25.4 77.7 24 3.9 39
23:20 1014 29.94 843 24.89 25.4 77.8 24 3.4 38.1
23:25 1014 29.94 843 24.89 25.5 78 24 3.7 38.7
23:30 1014 29.94 843 24.89 25.3 77.5 24 3.5 38.3
23:35 1014 29.94 843 24.89 25.2 77.3 26 4.5 40
23:40 1014 29.94 843 24.89 25.1 77.2 25 3.9 39
23:45 1014 29.94 843 24.89 25 77.1 25 3.7 38.6
23:50 1014 29.94 843 24.89 24.8 76.6 27 4.6 40.2
23:55 1014 29.94 843 24.89 24.5 76.1 29 5.3 41.6
24:00 1014 29.94 843 24.89 24.6 76.3 26 3.9 39